Flight Track Log - Related Links

Times and Time Zones

All times are in EDT time to prevent confusion due to time zone crossing. See the UAL906 flight status page for this flight to view local times or setup timezone preferences in your user account.

Time Position Orientation Groundspeed Altitude Reporting Facility
EDT Latitude Longitude Course Direction KTS MPH feet Rate Location/Type
Mon 07:17:12 PM 41.9833 -87.8333 14° North 209 241 2,500  Level Chicago TRACON
Mon 07:18:12 PM 42.0167 -87.7500 62° Northeast 274 315 5,100 2,778 Climbing Chicago TRACON
Mon 07:19:00 PM 42.3623 -87.7772 20° North  Level FlightAware Approximate
Mon 07:19:54 PM 42.1344 -87.7711 352° North 302 348 10,000  Level Chicago Center
Mon 07:20:00 PM 42.4939 -87.7346 North  Level FlightAware Approximate
Mon 07:20:56 PM 42.2164 -87.7694 North 298 343 12,600  Level Chicago Center
Mon 07:21:00 PM 42.6265 -87.6968 14° North  Level FlightAware Approximate
Mon 07:21:58 PM 42.3031 -87.7631 North 311 358 14,600  Level Chicago Center
Mon 07:22:00 PM 42.7609 -87.6519 14° North  Level FlightAware Approximate
Mon 07:23:00 PM 42.4042 -87.7367 11° North 365 420 15,700  Level Chicago Center
Mon 07:24:01 PM 42.5400 -87.7022 11° North 412 474 18,100 2,195 Climbing Chicago Center
Mon 07:25:03 PM 42.6561 -87.6744 10° North 423 487 20,200 1,839 Climbing Chicago Center
Mon 07:26:05 PM 42.7778 -87.6442 10° North 438 504 21,900 1,645 Climbing Chicago Center
Mon 07:27:07 PM 42.8894 -87.5628 28° Northeast 460 529 23,600 1,645 Climbing Chicago Center
Mon 07:28:09 PM 42.9919 -87.4517 38° Northeast 470 541 25,300 1,548 Climbing Chicago Center
Mon 07:29:11 PM 43.0975 -87.3361 39° Northeast 479 551 26,800 1,694 Climbing Chicago Center
Mon 07:30:13 PM 43.2064 -87.2203 38° Northeast 491 565 28,800 1,805 Climbing Chicago Center
Mon 07:31:14 PM 43.3103 -87.1033 39° Northeast 486 559 30,500 1,073 Climbing Chicago Center
Mon 07:32:16 PM 43.4325 -86.9675 39° Northeast 472 543 31,000 290 Climbing Chicago Center
Mon 07:33:18 PM 43.5361 -86.8517 39° Northeast 477 549 31,100  Climbing Chicago Center
Mon 07:34:20 PM 43.6408 -86.7350 39° Northeast 480 552 31,000  Descending Chicago Center
Mon 07:34:45 PM 43.6811 -86.6867 41° Northeast 480 552 31,100 69 Climbing Minneapolis Center
Mon 07:35:47 PM 43.7817 -86.5647 41° Northeast 480 552 31,100 -48 Level Minneapolis Center
Mon 07:36:49 PM 43.8833 -86.4442 41° Northeast 481 554 31,000 -48 Descending Minneapolis Center
Mon 07:37:51 PM 43.9839 -86.3242 41° Northeast 477 549 31,000 48 Level Minneapolis Center
Mon 07:38:53 PM 44.0839 -86.2025 41° Northeast 477 549 31,100  Climbing Minneapolis Center
Mon 07:39:54 PM 44.1889 -86.0750 41° Northeast 478 550 31,000 -49 Descending Minneapolis Center
Mon 07:40:56 PM 44.3072 -85.9306 41° Northeast 475 547 31,000  Level Minneapolis Center
Mon 07:41:58 PM 44.4067 -85.8103 41° Northeast 476 548 31,000  Level Minneapolis Center
Mon 07:43:00 PM 44.5036 -85.6900 41° Northeast 473 544 31,000  Level Minneapolis Center
Mon 07:44:02 PM 44.6006 -85.5706 41° Northeast 470 541 31,000  Level Minneapolis Center
Mon 07:45:04 PM 44.6981 -85.4506 41° Northeast 471 542 31,000  Level Minneapolis Center
Mon 07:46:06 PM 44.8144 -85.3058 41° Northeast 470 541 31,000  Level Minneapolis Center
Mon 07:47:07 PM 44.9122 -85.1831 42° Northeast 472 543 31,000  Level Minneapolis Center
Mon 07:48:09 PM 45.0089 -85.0622 41° Northeast 468 539 31,000  Level Minneapolis Center
Mon 07:49:11 PM 45.1064 -84.9406 41° Northeast 469 540 31,000  Level Minneapolis Center
Mon 07:50:13 PM 45.2025 -84.8172 42° Northeast 468 539 31,000  Level Minneapolis Center
Mon 07:51:15 PM 45.2992 -84.6947 42° Northeast 468 539 31,000  Level Minneapolis Center
Mon 07:52:17 PM 45.4131 -84.5503 42° Northeast 461 531 31,000  Level Minneapolis Center
Mon 07:53:19 PM 45.5064 -84.4289 42° Northeast 457 526 31,000  Level Minneapolis Center
Mon 07:54:21 PM 45.6006 -84.3092 42° Northeast 456 525 31,000  Level Minneapolis Center
Mon 07:55:23 PM 45.6928 -84.1872 43° Northeast 454 522 31,000  Level Minneapolis Center
Mon 07:56:24 PM 45.7864 -84.0656 42° Northeast 455 524 31,000  Level Minneapolis Center
Mon 07:57:26 PM 45.8806 -83.9444 42° Northeast 456 525 31,000 58 Level Minneapolis Center
Mon 07:58:08 PM 45.9500 -83.8333 48° Northeast 470 541 31,100 59 Climbing Toronto Center
Mon 07:59:08 PM 46.0500 -83.7000 43° Northeast 470 541 31,100  Level Toronto Center
Mon 08:00:08 PM 46.1333 -83.5833 44° Northeast 460 529 31,100  Level Toronto Center
Mon 08:01:08 PM 46.2333 -83.4333 46° Northeast 460 529 31,100 -50 Level Toronto Center
Mon 08:02:08 PM 46.3167 -83.3333 40° Northeast 470 541 31,000  Descending Toronto Center
Mon 08:03:08 PM 46.4333 -83.1833 42° Northeast 470 541 31,100 50 Climbing Toronto Center
Mon 08:04:08 PM 46.5167 -83.0500 48° Northeast 480 552 31,100  Level Toronto Center
Mon 08:05:08 PM 46.6167 -82.9167 42° Northeast 490 564 31,100 -50 Level Toronto Center
Mon 08:06:08 PM 46.7167 -82.8000 39° Northeast 490 564 31,000  Descending Toronto Center
Mon 08:07:08 PM 46.8167 -82.6500 46° Northeast 480 552 31,100  Climbing Toronto Center
Mon 08:08:08 PM 46.9167 -82.5167 42° Northeast 480 552 31,000  Descending Toronto Center
Mon 08:09:08 PM 47.0167 -82.3667 46° Northeast 480 552 31,100 50 Climbing Toronto Center
Mon 08:10:08 PM 47.1000 -82.2500 44° Northeast 480 552 31,100  Level Toronto Center
Mon 08:11:08 PM 47.2000 -82.1167 42° Northeast 480 552 31,100  Level Toronto Center
Mon 08:12:08 PM 47.3000 -81.9667 45° Northeast 480 552 31,100  Level Toronto Center
Mon 08:13:08 PM 47.4000 -81.8167 45° Northeast 480 552 31,100  Level Toronto Center
Mon 08:14:08 PM 47.4833 -81.7000 43° Northeast 480 552 31,100  Level Toronto Center
Mon 08:15:08 PM 47.5833 -81.5667 42° Northeast 480 552 31,100  Level Toronto Center
Mon 08:16:08 PM 47.6833 -81.4167 45° Northeast 480 552 31,100  Level Toronto Center
Mon 08:17:08 PM 47.7667 -81.3000 43° Northeast 480 552 31,100  Level Toronto Center
Mon 08:18:08 PM 47.8667 -81.1500 45° Northeast 480 552 31,100  Level Toronto Center
Mon 08:19:08 PM 47.9500 -81.0000 50° Northeast 480 552 31,100  Level Toronto Center
Mon 08:20:08 PM 48.0667 -80.8500 41° Northeast 480 552 31,100  Level Toronto Center
Mon 08:21:14 PM 48.1667 -80.7333 38° Northeast 480 552 31,100  Level Montreal Center
Mon 08:22:14 PM 48.2500 -80.5833 50° Northeast 480 552 31,100  Level Montreal Center
Mon 08:23:14 PM 48.3333 -80.4500 47° Northeast 480 552 31,100  Level Montreal Center
Mon 08:24:14 PM 48.4333 -80.3000 45° Northeast 490 564 31,100  Level Montreal Center
Mon 08:25:14 PM 48.5333 -80.1333 48° Northeast 480 552 31,100  Level Montreal Center
Mon 08:26:14 PM 48.6333 -79.9833 45° Northeast 490 564 31,100  Level Montreal Center
Mon 08:27:14 PM 48.7167 -79.8167 53° Northeast 490 564 31,100  Level Montreal Center
Mon 08:28:14 PM 48.8000 -79.6667 50° Northeast 490 564 31,100  Level Montreal Center
Mon 08:29:14 PM 48.9000 -79.5167 45° Northeast 480 552 31,100  Level Montreal Center
Mon 08:30:14 PM 48.9833 -79.3500 53° Northeast 490 564 31,100  Level Montreal Center
Mon 08:31:14 PM 49.0667 -79.2333 43° Northeast 480 552 31,100  Level Montreal Center
Mon 08:32:14 PM 49.1667 -79.0500 50° Northeast 490 564 31,100 -50 Level Montreal Center
Mon 08:33:14 PM 49.2667 -78.9000 44° Northeast 490 564 31,000  Descending Montreal Center
Mon 08:34:14 PM 49.3333 -78.7333 58° Northeast 470 541 31,100 650 Climbing Montreal Center
Mon 08:35:14 PM 49.4167 -78.5833 49° Northeast 490 564 32,300 950 Climbing Montreal Center
Mon 08:36:14 PM 49.5333 -78.4333 40° Northeast 490 564 33,000 400 Climbing Montreal Center
Mon 08:37:14 PM 49.6167 -78.2500 55° Northeast 480 552 33,100  Climbing Montreal Center
Mon 08:38:14 PM 49.7000 -78.1000 49° Northeast 480 552 33,000  Descending Montreal Center
Mon 08:39:14 PM 49.7833 -77.9500 49° Northeast 480 552 33,100  Climbing Montreal Center
Mon 08:40:14 PM 49.8833 -77.8000 44° Northeast 470 541 33,000  Descending Montreal Center
Mon 08:41:14 PM 49.9667 -77.6333 52° Northeast 480 552 33,100 50 Climbing Montreal Center
Mon 08:42:14 PM 50.0500 -77.4667 52° Northeast 480 552 33,100  Level Montreal Center
Mon 08:43:14 PM 50.1333 -77.3000 52° Northeast 480 552 33,100 -50 Level Montreal Center
Mon 08:44:14 PM 50.2167 -77.1500 49° Northeast 490 564 33,000  Descending Montreal Center
Mon 08:45:14 PM 50.3000 -77.0000 49° Northeast 490 564 33,100 50 Climbing Montreal Center
Mon 08:46:14 PM 50.4000 -76.8333 47° Northeast 490 564 33,100  Level Montreal Center
Mon 08:47:14 PM 50.5000 -76.6500 49° Northeast 490 564 33,100  Level Montreal Center
Mon 08:48:14 PM 50.5833 -76.5000 49° Northeast 500 575 33,100 -50 Level Montreal Center
Mon 08:49:14 PM 50.6667 -76.3167 54° Northeast 500 575 33,000  Descending Montreal Center
Mon 08:50:14 PM 50.7500 -76.1500 52° Northeast 500 575 33,100 50 Climbing Montreal Center
Mon 08:51:14 PM 50.8500 -75.9667 49° Northeast 500 575 33,100  Level Montreal Center
Mon 08:52:14 PM 50.9333 -75.8000 52° Northeast 500 575 33,100 -50 Level Montreal Center
Mon 08:53:14 PM 51.0167 -75.6167 54° Northeast 500 575 33,000 -50 Descending Montreal Center
Mon 08:54:14 PM 51.1000 -75.4500 51° Northeast 500 575 33,000  Level Montreal Center
Mon 08:55:14 PM 51.1833 -75.2667 54° Northeast 500 575 33,000 50 Level Montreal Center
Mon 08:56:14 PM 51.2833 -75.1000 46° Northeast 500 575 33,100 50 Climbing Montreal Center
Mon 08:57:14 PM 51.3667 -74.9167 54° Northeast 500 575 33,100 -50 Level Montreal Center
Mon 08:58:14 PM 51.4500 -74.7500 51° Northeast 500 575 33,000  Descending Montreal Center
Mon 08:59:14 PM 51.5333 -74.5500 56° Northeast 500 575 33,100 50 Climbing Montreal Center
Mon 09:00:14 PM 51.6333 -74.4000 43° Northeast 500 575 33,100  Level Montreal Center
Mon 09:01:14 PM 51.7167 -74.2000 56° Northeast 500 575 33,100 -50 Level Montreal Center
Mon 09:02:14 PM 51.8000 -74.0333 51° Northeast 500 575 33,000 -50 Descending Montreal Center
Mon 09:03:14 PM 51.8833 -73.8333 56° Northeast 510 587 33,000 50 Level Montreal Center
Mon 09:04:14 PM 51.9667 -73.6667 51° Northeast 510 587 33,100  Climbing Montreal Center
Mon 09:05:14 PM 52.0500 -73.4667 56° Northeast 510 587 33,000  Descending Montreal Center
Mon 09:06:14 PM 52.1500 -73.3000 46° Northeast 510 587 33,100 50 Climbing Montreal Center
Mon 09:07:14 PM 52.2333 -73.1000 56° Northeast 500 575 33,100 -50 Level Montreal Center
Mon 09:08:14 PM 52.3000 -72.9333 57° Northeast 510 587 33,000 -50 Descending Montreal Center
Mon 09:09:14 PM 52.3833 -72.7333 56° Northeast 500 575 33,000  Level Montreal Center
Mon 09:10:14 PM 52.4833 -72.5333 51° Northeast 500 575 33,000  Level Montreal Center
Mon 09:11:14 PM 52.5667 -72.3667 51° Northeast 510 587 33,000  Level Montreal Center
Mon 09:12:14 PM 52.6333 -72.1833 59° Northeast 500 575 33,000 50 Level Montreal Center
Mon 09:13:14 PM 52.7333 -71.9833 50° Northeast 510 587 33,100 50 Climbing Montreal Center
Mon 09:14:14 PM 52.8167 -71.7833 55° Northeast 510 587 33,100 -50 Level Montreal Center
Mon 09:15:14 PM 52.8833 -71.6167 56° Northeast 510 587 33,000  Descending Montreal Center
Mon 09:16:14 PM 52.9833 -71.4000 52° Northeast 510 587 33,100 50 Climbing Montreal Center
Mon 09:17:14 PM 53.0667 -71.2333 50° Northeast 510 587 33,100 -50 Level Montreal Center
Mon 09:18:14 PM 53.1333 -71.0167 63° Northeast 510 587 33,000 -50 Descending Montreal Center
Mon 09:19:14 PM 53.2333 -70.8167 50° Northeast 510 587 33,000 50 Level Montreal Center
Mon 09:20:14 PM 53.3000 -70.6333 59° Northeast 510 587 33,100  Climbing Montreal Center
Mon 09:21:14 PM 53.3833 -70.4333 55° Northeast 510 587 33,000 -50 Descending Montreal Center
Mon 09:22:14 PM 53.4667 -70.2500 53° Northeast 510 587 33,000  Level Montreal Center
Mon 09:23:14 PM 53.5500 -70.0333 57° Northeast 510 587 33,000  Level Montreal Center
Mon 09:23:37 PM 53.5833 -70.0000 31° Northeast 510 587 33,000  Level Gander Center
Mon 09:24:37 PM 53.6500 -69.8167 58° Northeast 510 587 33,000 50 Level Gander Center
Mon 09:25:37 PM 53.7333 -69.6000 57° Northeast 510 587 33,100 62 Climbing Gander Center
Mon 09:26:14 PM 53.7833 -69.4333 63° Northeast 510 587 33,100  Level Montreal Center
Mon 09:27:14 PM 53.8667 -69.2167 57° Northeast 510 587 33,100 -50 Level Montreal Center
Mon 09:28:14 PM 53.9500 -69.0333 52° Northeast 510 587 33,000 -50 Descending Montreal Center
Mon 09:29:14 PM 54.0333 -68.8500 52° Northeast 510 587 33,000  Level Montreal Center
Mon 09:30:14 PM 54.1167 -68.6333 57° Northeast 510 587 33,000  Level Montreal Center
Mon 09:31:14 PM 54.1833 -68.4500 58° Northeast 510 587 33,000 50 Level Montreal Center
Mon 09:32:14 PM 54.2667 -68.2333 57° Northeast 510 587 33,100  Climbing Montreal Center
Mon 09:33:14 PM 54.3500 -68.0333 54° Northeast 510 587 33,000 -50 Descending Montreal Center
Mon 09:34:14 PM 54.4333 -67.8167 56° Northeast 510 587 33,000 50 Level Montreal Center
Mon 09:35:14 PM 54.5000 -67.6333 58° Northeast 510 587 33,100  Climbing Montreal Center
Mon 09:36:14 PM 54.5833 -67.4000 58° Northeast 510 587 33,000  Descending Montreal Center
Mon 09:37:14 PM 54.6500 -67.1833 62° Northeast 510 587 33,100  Climbing Montreal Center
Mon 09:38:14 PM 54.7333 -67.0000 52° Northeast 500 575 33,000 -72 Descending Montreal Center
Mon 09:38:37 PM 54.7667 -66.9333 49° Northeast 520 598 33,000 100 Level Gander Center
Mon 09:39:14 PM 54.8167 -66.7667 62° Northeast 520 598 33,100  Climbing Montreal Center
Mon 09:40:14 PM 54.8833 -66.5833 58° Northeast 510 587 33,000  Descending Montreal Center
Mon 09:40:37 PM 54.9167 -66.5167 49° Northeast 520 598 33,100  Climbing Gander Center
Mon 09:41:14 PM 54.9667 -66.3500 62° Northeast 510 587 33,000  Descending Montreal Center
Mon 09:42:14 PM 55.0333 -66.1333 62° Northeast 540 621 33,100  Climbing Montreal Center
Mon 09:43:14 PM 55.1167 -65.9333 54° Northeast 510 587 33,000 -50 Descending Montreal Center
Mon 09:44:14 PM 55.1833 -65.7000 63° Northeast 520 598 33,000 50 Level Montreal Center
Mon 09:45:14 PM 55.2667 -65.5000 54° Northeast 520 598 33,100  Climbing Montreal Center
Mon 09:45:37 PM 55.3000 -65.4500 40° Northeast 520 598 33,000 -100 Descending Gander Center
Mon 09:46:14 PM 55.3500 -65.2667 64° Northeast 520 598 33,000 62 Level Montreal Center
Mon 09:47:14 PM 55.4167 -65.0500 61° Northeast 520 598 33,100  Climbing Montreal Center
Mon 09:47:37 PM 55.4500 -65.0167 30° Northeast 530 610 33,000  Descending Gander Center
Mon 09:48:14 PM 55.5000 -64.8167 66° East 520 598 33,100  Climbing Montreal Center
Mon 09:49:14 PM 55.5667 -64.6167 59° Northeast 510 587 33,000 -50 Descending Montreal Center
Mon 09:50:14 PM 55.6500 -64.3833 58° Northeast 520 598 33,000  Level Montreal Center
Mon 09:50:37 PM 55.6667 -64.3333 59° Northeast 530 610 33,000 72 Level Gander Center
Mon 09:51:37 PM 55.7333 -64.1333 59° Northeast 520 598 33,100  Climbing Gander Center
Mon 09:52:14 PM 55.7833 -63.9500 64° Northeast 520 598 33,000 -50 Descending Montreal Center
Mon 09:53:37 PM 55.9000 -63.6667 54° Northeast 520 598 33,000  Level Gander Center
Mon 09:54:37 PM 55.9667 -63.4667 59° Northeast 520 598 33,000  Level Gander Center
Mon 09:55:37 PM 56.0167 -63.2167 70° East 520 598 33,000 50 Level Gander Center
Mon 09:56:37 PM 56.1000 -62.9833 57° Northeast 520 598 33,100  Climbing Gander Center
Mon 09:57:37 PM 56.1833 -62.7833 53° Northeast 530 610 33,000  Descending Gander Center
Mon 09:58:37 PM 56.2500 -62.5500 63° Northeast 520 598 33,100 50 Climbing Gander Center
Mon 09:59:37 PM 56.3167 -62.3000 64° Northeast 520 598 33,100 -50 Level Gander Center
Mon 10:00:37 PM 56.3833 -62.1000 59° Northeast 520 598 33,000 600 Descending Gander Center
Mon 10:02:37 PM 56.5167 -61.6500 62° Northeast 510 587 34,900 667 Climbing Gander Center
Mon 10:03:37 PM 56.5833 -61.4000 64° Northeast 500 575 35,000 50 Climbing Gander Center
Mon 10:04:37 PM 56.6333 -61.1833 67° East 490 564 35,000  Level Gander Center
Mon 10:05:37 PM 56.7000 -60.9500 62° Northeast 490 564 35,000 50 Level Gander Center
Mon 10:06:37 PM 56.7667 -60.7333 61° Northeast 490 564 35,100 50 Climbing Gander Center
Mon 10:07:37 PM 56.8333 -60.5167 61° Northeast 490 564 35,100 -50 Level Gander Center
Mon 10:08:37 PM 56.9000 -60.3000 61° Northeast 490 564 35,000  Descending Gander Center
Mon 10:09:37 PM 56.9500 -60.0833 67° East 500 575 35,100  Climbing Gander Center
Mon 10:10:37 PM 57.0167 -59.8667 60° Northeast 490 564 35,000 -50 Descending Gander Center
Mon 10:11:37 PM 57.0667 -59.6500 67° East 490 564 35,000  Level Gander Center
Mon 10:12:37 PM 57.1167 -59.4333 67° East 490 564 35,000  Level Gander Center
Mon 10:13:37 PM 57.1833 -59.1833 64° Northeast 490 564 35,000  Level Gander Center
Mon 10:14:37 PM 57.2167 -58.9333 76° East 500 575 35,000  Level Gander Center
Mon 10:15:37 PM 57.2500 -58.7000 75° East 500 575 35,000 50 Level Gander Center
Mon 10:16:37 PM 57.2667 -58.4500 83° East 500 575 35,100 50 Climbing Gander Center
Mon 10:17:37 PM 57.3000 -58.1667 78° East 510 587 35,100 -50 Level Gander Center
Mon 10:18:37 PM 57.3333 -57.9500 74° East 510 587 35,000  Descending Gander Center
Mon 10:19:37 PM 57.3500 -57.7000 83° East 500 575 35,100  Climbing Gander Center
Mon 10:20:37 PM 57.4000 -57.4167 72° East 510 587 35,000  Descending Gander Center
Mon 10:21:37 PM 57.4000 -57.1667 90° East 500 575 35,100  Climbing Gander Center
Mon 10:22:37 PM 57.4333 -56.9167 76° East 490 564 35,000 -50 Descending Gander Center
Mon 10:23:37 PM 57.4500 -56.6833 82° East 490 564 35,000  Level Gander Center
Mon 10:24:37 PM 57.4833 -56.4333 76° East 490 564 35,000  Level Gander Center
Mon 10:25:37 PM 57.5000 -56.1833 83° East 490 564 35,000  Level Gander Center
Mon 10:26:37 PM 57.5333 -55.9333 76° East 490 564 35,000 50 Level Gander Center
Mon 10:27:37 PM 57.5667 -55.6833 76° East 490 564 35,100 50 Climbing Gander Center
Mon 10:28:37 PM 57.5833 -55.4333 83° East 500 575 35,100 -50 Level Gander Center
Mon 10:29:37 PM 57.6500 -55.1667 65° Northeast 490 564 35,000 -50 Descending Gander Center
Mon 10:30:37 PM 57.6333 -54.9167 97° East 480 552 35,000 Level Gander Center
Mon 10:32:00 PM 57.6663 -54.5634 80° East  Level FlightAware Approximate
Mon 10:39:00 PM 57.8164 -52.7879 80° East  Level FlightAware Approximate
Mon 10:40:00 PM 57.8358 -52.5331 82° East  Level FlightAware Approximate
Mon 10:41:00 PM 57.8547 -52.2780 82° East  Level FlightAware Approximate
Mon 10:42:00 PM 57.8731 -52.0227 82° East  Level FlightAware Approximate
Mon 10:43:00 PM 57.8909 -51.7671 82° East  Level FlightAware Approximate
Mon 10:44:00 PM 57.9083 -51.5113 83° East  Level FlightAware Approximate
Mon 10:45:00 PM 57.9251 -51.2552 83° East  Level FlightAware Approximate
Mon 10:46:00 PM 57.9414 -50.9988 83° East  Level FlightAware Approximate
Mon 10:47:00 PM 57.9572 -50.7423 83° East  Level FlightAware Approximate
Mon 10:48:00 PM 57.9725 -50.4855 83° East  Level FlightAware Approximate
Mon 10:49:00 PM 57.9873 -50.2285 84° East  Level FlightAware Approximate
Mon 10:50:00 PM 58.0011 -49.9708 86° East  Level FlightAware Approximate
Mon 10:51:00 PM 58.0101 -49.7127 86° East  Level FlightAware Approximate
Mon 10:52:00 PM 58.0186 -49.4544 86° East  Level FlightAware Approximate
Mon 10:53:00 PM 58.0266 -49.1960 87° East  Level FlightAware Approximate
Mon 10:54:00 PM 58.0341 -48.9376 87° East  Level FlightAware Approximate
Mon 10:55:00 PM 58.0411 -48.6790 87° East  Level FlightAware Approximate
Mon 10:56:00 PM 58.0475 -48.4203 87° East  Level FlightAware Approximate
Mon 10:57:00 PM 58.0534 -48.1615 87° East  Level FlightAware Approximate
Mon 10:58:00 PM 58.0588 -47.9027 88° East  Level FlightAware Approximate
Mon 10:59:00 PM 58.0637 -47.6437 88° East  Level FlightAware Approximate
Mon 11:00:00 PM 58.0680 -47.3848 88° East  Level FlightAware Approximate
Mon 11:01:00 PM 58.0718 -47.1257 88° East  Level FlightAware Approximate
Mon 11:02:00 PM 58.0751 -46.8666 89° East  Level FlightAware Approximate
Mon 11:03:00 PM 58.0778 -46.6075 89° East  Level FlightAware Approximate
Mon 11:04:00 PM 58.0801 -46.3483 89° East  Level FlightAware Approximate
Mon 11:05:00 PM 58.0818 -46.0891 89° East  Level FlightAware Approximate
Mon 11:06:00 PM 58.0829 -45.8298 89° East  Level FlightAware Approximate
Mon 11:07:00 PM 58.0843 -45.5706 89° East  Level FlightAware Approximate
Mon 11:08:00 PM 58.0858 -45.3114 89° East  Level FlightAware Approximate
Mon 11:09:00 PM 58.0867 -45.0521 89° East  Level FlightAware Approximate
Mon 11:10:00 PM 58.0871 -44.7928 90° East  Level FlightAware Approximate
Mon 11:11:00 PM 58.0870 -44.5335 90° East  Level FlightAware Approximate
Mon 11:12:00 PM 58.0864 -44.2743 90° East  Level FlightAware Approximate
Mon 11:13:00 PM 58.0853 -44.0150 90° East  Level FlightAware Approximate
Mon 11:14:00 PM 58.0836 -43.7558 91° East  Level FlightAware Approximate
Mon 11:15:00 PM 58.0814 -43.4966 91° East  Level FlightAware Approximate
Mon 11:16:00 PM 58.0786 -43.2374 91° East  Level FlightAware Approximate
Mon 11:17:00 PM 58.0754 -42.9783 91° East  Level FlightAware Approximate
Mon 11:18:00 PM 58.0716 -42.7192 91° East  Level FlightAware Approximate
Mon 11:19:00 PM 58.0673 -42.4602 92° East  Level FlightAware Approximate
Mon 11:20:00 PM 58.0624 -42.2012 92° East  Level FlightAware Approximate
Mon 11:21:00 PM 58.0571 -41.9423 92° East  Level FlightAware Approximate
Mon 11:22:00 PM 58.0512 -41.6835 92° East  Level FlightAware Approximate
Mon 11:23:00 PM 58.0448 -41.4248 93° East  Level FlightAware Approximate
Mon 11:24:00 PM 58.0378 -41.1662 93° East  Level FlightAware Approximate
Mon 11:25:00 PM 58.0304 -40.9077 93° East  Level FlightAware Approximate
Mon 11:26:00 PM 58.0224 -40.6493 93° East  Level FlightAware Approximate
Mon 11:27:00 PM 58.0139 -40.3910 93° East  Level FlightAware Approximate
Mon 11:28:00 PM 58.0048 -40.1329 94° East  Level FlightAware Approximate
Mon 11:29:00 PM 58.0049 -39.8749 86° East  Level FlightAware Approximate
Mon 11:30:00 PM 58.0145 -39.6168 86° East  Level FlightAware Approximate
Mon 11:31:00 PM 58.0236 -39.3586 86° East  Level FlightAware Approximate
Mon 11:32:00 PM 58.0322 -39.1002 86° East  Level FlightAware Approximate
Mon 11:33:00 PM 58.0402 -38.8418 87° East  Level FlightAware Approximate
Mon 11:34:00 PM 58.0478 -38.5832 87° East  Level FlightAware Approximate
Mon 11:35:00 PM 58.0548 -38.3245 87° East  Level FlightAware Approximate
Mon 11:36:00 PM 58.0613 -38.0658 87° East  Level FlightAware Approximate
Mon 11:37:00 PM 58.0672 -37.8069 87° East  Level FlightAware Approximate
Mon 11:38:00 PM 58.0727 -37.5479 88° East  Level FlightAware Approximate
Mon 11:39:00 PM 58.0776 -37.2889 88° East  Level FlightAware Approximate
Mon 11:40:00 PM 58.0820 -37.0298 88° East  Level FlightAware Approximate
Mon 11:41:00 PM 58.0858 -36.7707 88° East  Level FlightAware Approximate
Mon 11:42:00 PM 58.0891 -36.5115 88° East  Level FlightAware Approximate
Mon 11:43:00 PM 58.0919 -36.2522 89° East  Level FlightAware Approximate
Mon 11:44:00 PM 58.0942 -35.9930 89° East  Level FlightAware Approximate
Mon 11:45:00 PM 58.0960 -35.7336 89° East  Level FlightAware Approximate
Mon 11:46:00 PM 58.0972 -35.4743 89° East  Level FlightAware Approximate
Mon 11:47:00 PM 58.0979 -35.2150 90° East  Level FlightAware Approximate
Mon 11:48:00 PM 58.0981 -34.9556 90° East  Level FlightAware Approximate
Mon 11:49:00 PM 58.0977 -34.6963 90° East  Level FlightAware Approximate
Mon 11:50:00 PM 58.0969 -34.4369 90° East  Level FlightAware Approximate
Mon 11:51:00 PM 58.0954 -34.1776 90° East  Level FlightAware Approximate
Mon 11:52:00 PM 58.0935 -33.9183 91° East  Level FlightAware Approximate
Mon 11:53:00 PM 58.0910 -33.6590 91° East  Level FlightAware Approximate
Mon 11:54:00 PM 58.0881 -33.3998 91° East  Level FlightAware Approximate
Mon 11:55:00 PM 58.0845 -33.1406 91° East  Level FlightAware Approximate
Mon 11:56:00 PM 58.0805 -32.8815 92° East  Level FlightAware Approximate
Mon 11:57:00 PM 58.0760 -32.6224 92° East  Level FlightAware Approximate
Mon 11:58:00 PM 58.0709 -32.3634 92° East  Level FlightAware Approximate
Mon 11:59:00 PM 58.0652 -32.1045 92° East  Level FlightAware Approximate
Tue 12:00:00 AM 58.0591 -31.8456 92° East  Level FlightAware Approximate
Tue 12:01:00 AM 58.0524 -31.5869 93° East  Level FlightAware Approximate
Tue 12:02:00 AM 58.0452 -31.3283 93° East  Level FlightAware Approximate
Tue 12:03:00 AM 58.0375 -31.0697 93° East  Level FlightAware Approximate
Tue 12:04:00 AM 58.0293 -30.8113 93° East  Level FlightAware Approximate
Tue 12:05:00 AM 58.0205 -30.5530 94° East  Level FlightAware Approximate
Tue 12:06:00 AM 58.0112 -30.2948 94° East  Level FlightAware Approximate
Tue 12:07:00 AM 58.0014 -30.0368 94° East  Level FlightAware Approximate
Tue 12:08:00 AM 58.0085 -29.7788 86° East  Level FlightAware Approximate
Tue 12:09:00 AM 58.0179 -29.5207 86° East  Level FlightAware Approximate
Tue 12:10:00 AM 58.0268 -29.2624 86° East  Level FlightAware Approximate
Tue 12:11:00 AM 58.0352 -29.0040 86° East  Level FlightAware Approximate
Tue 12:12:00 AM 58.0431 -28.7455 87° East  Level FlightAware Approximate
Tue 12:13:00 AM 58.0504 -28.4869 87° East  Level FlightAware Approximate
Tue 12:14:00 AM 58.0572 -28.2282 87° East  Level FlightAware Approximate
Tue 12:15:00 AM 58.0635 -27.9694 87° East  Level FlightAware Approximate
Tue 12:16:00 AM 58.0693 -27.7105 87° East  Level FlightAware Approximate
Tue 12:17:00 AM 58.0745 -27.4515 88° East  Level FlightAware Approximate
Tue 12:18:00 AM 58.0793 -27.1925 88° East  Level FlightAware Approximate
Tue 12:19:00 AM 58.0834 -26.9334 88° East  Level FlightAware Approximate
Tue 12:20:00 AM 58.0871 -26.6742 88° East  Level FlightAware Approximate
Tue 12:21:00 AM 58.0902 -26.4150 89° East  Level FlightAware Approximate
Tue 12:22:00 AM 58.0928 -26.1557 89° East  Level FlightAware Approximate
Tue 12:23:00 AM 58.0949 -25.8964 89° East  Level FlightAware Approximate
Tue 12:24:00 AM 58.0965 -25.6371 89° East  Level FlightAware Approximate
Tue 12:25:00 AM 58.0975 -25.3778 89° East  Level FlightAware Approximate
Tue 12:26:00 AM 58.0980 -25.1184 90° East  Level FlightAware Approximate
Tue 12:27:00 AM 58.0980 -24.8591 90° East  Level FlightAware Approximate
Tue 12:28:00 AM 58.0975 -24.5997 90° East  Level FlightAware Approximate
Tue 12:29:00 AM 58.0964 -24.3404 90° East  Level FlightAware Approximate
Tue 12:30:00 AM 58.0948 -24.0810 91° East  Level FlightAware Approximate
Tue 12:31:00 AM 58.0926 -23.8218 91° East  Level FlightAware Approximate
Tue 12:32:00 AM 58.0900 -23.5625 91° East  Level FlightAware Approximate
Tue 12:33:00 AM 58.0868 -23.3033 91° East  Level FlightAware Approximate
Tue 12:34:00 AM 58.0831 -23.0441 91° East  Level FlightAware Approximate
Tue 12:35:00 AM 58.0789 -22.7850 92° East  Level FlightAware Approximate
Tue 12:36:00 AM 58.0741 -22.5259 92° East  Level FlightAware Approximate
Tue 12:37:00 AM 58.0688 -22.2670 92° East  Level FlightAware Approximate
Tue 12:38:00 AM 58.0630 -22.0081 92° East  Level FlightAware Approximate
Tue 12:39:00 AM 58.0567 -21.7493 93° East  Level FlightAware Approximate
Tue 12:40:00 AM 58.0498 -21.4906 93° East  Level FlightAware Approximate
Tue 12:41:00 AM 58.0424 -21.2320 93° East  Level FlightAware Approximate
Tue 12:42:00 AM 58.0345 -20.9735 93° East  Level FlightAware Approximate
Tue 12:43:00 AM 58.0261 -20.7151 93° East  Level FlightAware Approximate
Tue 12:44:00 AM 58.0171 -20.4569 94° East  Level FlightAware Approximate
Tue 12:45:00 AM 58.0077 -20.1987 94° East  Level FlightAware Approximate
Tue 12:46:00 AM 57.9924 -19.9424 104° East  Level FlightAware Approximate
Tue 12:47:00 AM 57.9589 -19.6917 104° East  Level FlightAware Approximate
Tue 12:48:00 AM 57.9250 -19.4415 104° East  Level FlightAware Approximate
Tue 12:49:00 AM 57.8906 -19.1918 104° East  Level FlightAware Approximate
Tue 12:50:00 AM 57.8557 -18.9426 105° East  Level FlightAware Approximate
Tue 12:51:00 AM 57.8202 -18.6939 105° East  Level FlightAware Approximate
Tue 12:52:00 AM 57.7844 -18.4456 105° East  Level FlightAware Approximate
Tue 12:53:00 AM 57.7480 -18.1979 105° East  Level FlightAware Approximate
Tue 12:54:00 AM 57.7111 -17.9506 105° East  Level FlightAware Approximate
Tue 12:55:00 AM 57.6742 -17.7036 105° East  Level FlightAware Approximate
Tue 12:56:00 AM 57.6382 -17.4564 105° East  Level FlightAware Approximate
Tue 12:57:00 AM 57.6018 -17.2097 105° East  Level FlightAware Approximate
Tue 12:58:00 AM 57.5648 -16.9635 106° East  Level FlightAware Approximate
Tue 12:59:00 AM 57.5274 -16.7178 106° East  Level FlightAware Approximate
Tue 01:00:00 AM 57.4894 -16.4726 106° East  Level FlightAware Approximate
Tue 01:01:00 AM 57.4511 -16.2279 106° East  Level FlightAware Approximate
Tue 01:02:00 AM 57.4122 -15.9838 106° East  Level FlightAware Approximate
Tue 01:03:00 AM 57.3729 -15.7401 107° East  Level FlightAware Approximate
Tue 01:04:00 AM 57.3329 -15.4971 107° East  Level FlightAware Approximate
Tue 01:05:00 AM 57.2921 -15.2548 107° East  Level FlightAware Approximate
Tue 01:06:00 AM 57.2509 -15.0130 107° East  Level FlightAware Approximate
Tue 01:07:00 AM 57.2093 -14.7718 108° East  Level FlightAware Approximate
Tue 01:08:00 AM 57.1671 -14.5311 108° East  Level FlightAware Approximate
Tue 01:09:00 AM 57.1245 -14.2909 108° East  Level FlightAware Approximate
Tue 01:10:00 AM 57.0815 -14.0514 108° East  Level FlightAware Approximate
Tue 01:11:00 AM 57.0380 -13.8123 108° East  Level FlightAware Approximate
Tue 01:12:00 AM 56.9942 -13.5747 109° East  Level FlightAware Approximate
Tue 01:13:00 AM 56.9499 -13.3377 109° East  Level FlightAware Approximate
Tue 01:14:00 AM 56.9052 -13.1012 109° East  Level FlightAware Approximate
Tue 01:15:00 AM 56.8601 -12.8653 109° East  Level FlightAware Approximate
Tue 01:16:00 AM 56.8145 -12.6299 109° East  Level FlightAware Approximate
Tue 01:17:00 AM 56.7685 -12.3952 110° East  Level FlightAware Approximate
Tue 01:18:00 AM 56.7220 -12.1610 110° East  Level FlightAware Approximate
Tue 01:19:00 AM 56.6751 -11.9274 110° East  Level FlightAware Approximate
Tue 01:20:00 AM 56.6278 -11.6944 110° East  Level FlightAware Approximate
Tue 01:21:00 AM 56.5800 -11.4619 110° East  Level FlightAware Approximate
Tue 01:21:47 AM 55.7270 -9.3260 111° Southeast 566 651 35,100  Level FlightAware ADS-B
Tue 01:22:00 AM 56.5318 -11.2301 111° Southeast  Level FlightAware Approximate
Tue 01:22:27 AM 55.6800 -9.1620 117° Southeast 566 651 35,100  Level FlightAware ADS-B
Tue 01:23:06 AM 55.6321 -8.9948 117° Southeast 466 536 33,500 -133 Descending FlightAware UK
Tue 01:23:12 AM 55.6280 -8.9810 117° Southeast 564 649 35,000  Climbing FlightAware ADS-B
Tue 01:23:30 AM 55.6035 -8.8965 117° Southeast 466 536 33,500 -2,500 Descending FlightAware UK
Tue 01:23:48 AM 55.5822 -8.8227 117° Southeast 466 536 33,500 4,091 Level FlightAware UK
Tue 01:23:52 AM 55.5800 -8.8150 117° Southeast 563 648 35,000  Climbing FlightAware ADS-B
Tue 01:24:12 AM 55.5537 -8.7247 117° Southeast 464 534 33,500 -2,368 Descending FlightAware UK
Tue 01:24:30 AM 55.5318 -8.6510 118° Southeast 464 534 33,500 4,500 Level FlightAware UK
Tue 01:24:32 AM 55.5340 -8.6590 118° Southeast 560 644 35,000  Climbing FlightAware ADS-B
Tue 01:24:48 AM 55.5103 -8.5784 118° Southeast 462 532 33,500 -2,647 Descending FlightAware UK
Tue 01:25:06 AM 55.4888 -8.5058 118° Southeast 462 532 33,500 3,103 Level FlightAware UK
Tue 01:25:17 AM 55.4790 -8.4720 118° Southeast 559 643 35,000  Climbing FlightAware ADS-B
Tue 01:25:36 AM 55.4530 -8.3850 118° Southeast 460 529 33,500 -2,432 Descending FlightAware UK
Tue 01:25:54 AM 55.4315 -8.3128 118° Southeast 460 529 33,500 4,286 Level FlightAware UK
Tue 01:25:57 AM 55.4330 -8.3150 118° Southeast 557 641 35,000  Climbing FlightAware ADS-B
Tue 01:26:12 AM 55.4102 -8.2405 118° Southeast 460 529 33,500 -2,727 Descending FlightAware UK
Tue 01:26:30 AM 55.3887 -8.1686 118° Southeast 460 529 33,500 3,000 Level FlightAware UK
Tue 01:26:42 AM 55.3790 -8.1370 118° Southeast 555 639 35,000  Climbing FlightAware ADS-B
Tue 01:27:00 AM 55.3527 -8.0493 118° Southeast 458 527 33,500 -2,500 Descending FlightAware UK
Tue 01:27:18 AM 55.3311 -7.9780 118° Southeast 458 527 33,500 4,091 Level FlightAware UK
Tue 01:27:22 AM 55.3310 -7.9770 118° Southeast 554 638 35,000  Climbing FlightAware ADS-B
Tue 01:27:42 AM 55.3022 -7.8831 118° Southeast 458 527 33,500 -2,368 Descending FlightAware UK
Tue 01:28:00 AM 55.2807 -7.8122 118° Southeast 458 527 33,500 4,500 Level FlightAware UK
Tue 01:28:02 AM 55.2800 -7.8090 118° Southeast 552 635 35,000  Climbing FlightAware ADS-B
Tue 01:28:18 AM 55.2592 -7.7413 118° Southeast 458 527 33,500 -2,647 Descending FlightAware UK
Tue 01:28:36 AM 55.2375 -7.6705 118° Southeast 458 527 33,500 3,103 Level FlightAware UK
Tue 01:28:47 AM 55.2270 -7.6350 118° Southeast 551 634 35,000  Climbing FlightAware ADS-B
Tue 01:29:06 AM 55.2013 -7.5529 118° Southeast 458 527 33,500  Descending FlightAware UK
Tue 01:29:22 AM 55.1850 -7.4990 118° Southeast 550 633 35,000  Climbing FlightAware ADS-B
Tue 01:29:24 AM 55.1796 -7.4824 118° Southeast 456 525 33,500 -4,500 Descending FlightAware UK
Tue 01:29:42 AM 55.1580 -7.4122 118° Southeast 456 525 33,500  Level FlightAware UK
Tue 01:30:00 AM 55.1359 -7.3413 119° Southeast 456 525 33,500  Level FlightAware UK
Tue 01:30:18 AM 55.1142 -7.2715 118° Southeast 456 525 33,500 4,364 Level FlightAware UK
Tue 01:30:22 AM 55.1130 -7.2660 118° Southeast 548 631 35,100  Climbing FlightAware ADS-B
Tue 01:30:42 AM 55.0853 -7.1784 118° Southeast 458 527 33,500 -2,526 Descending FlightAware UK
Tue 01:31:00 AM 55.0634 -7.1088 119° Southeast 458 527 33,500  Level FlightAware UK
Tue 01:31:18 AM 55.0416 -7.0392 119° Southeast 458 527 33,500  Level FlightAware UK
Tue 01:31:36 AM 55.0196 -6.9697 119° Southeast 458 527 33,500  Level FlightAware UK
Tue 01:32:00 AM 54.9903 -6.8770 119° Southeast 458 527 33,500  Level FlightAware UK
Tue 01:32:18 AM 54.9683 -6.8076 119° Southeast 458 527 33,500  Level FlightAware UK
Tue 01:32:36 AM 54.9463 -6.7383 119° Southeast 458 527 33,500 4,000 Level FlightAware UK
Tue 01:32:42 AM 54.9420 -6.7240 119° Southeast 543 625 35,100  Climbing FlightAware ADS-B
Tue 01:33:00 AM 54.9171 -6.6461 119° Southeast 458 527 33,500 -2,667 Descending FlightAware UK
Tue 01:33:18 AM 54.8949 -6.5772 119° Southeast 458 527 33,500 4,091 Level FlightAware UK
Tue 01:33:22 AM 54.8930 -6.5700 119° Southeast 543 625 35,000  Climbing FlightAware ADS-B
Tue 01:33:42 AM 54.8651 -6.4847 119° Southeast 458 527 33,500 -2,368 Descending FlightAware UK
Tue 01:34:00 AM 54.8430 -6.4160 119° Southeast 458 527 33,500 3,600 Level FlightAware UK
Tue 01:34:07 AM 54.8380 -6.3990 119° Southeast 542 624 35,000  Climbing FlightAware ADS-B
Tue 01:34:24 AM 54.8134 -6.3246 119° Southeast 458 527 33,500 -2,571 Descending FlightAware UK
Tue 01:34:42 AM 54.7911 -6.2564 120° Southeast 458 527 33,500 3,214 Level FlightAware UK
Tue 01:34:52 AM 54.7830 -6.2310 120° Southeast 542 624 35,000  Climbing FlightAware ADS-B
Tue 01:35:12 AM 54.7543 -6.1423 120° Southeast 458 527 33,500  Descending FlightAware UK
Tue 01:35:32 AM 54.7330 -6.0770 120° Southeast 542 624 35,000  Climbing FlightAware ADS-B
Tue 01:35:48 AM 54.7097 -6.0056 120° Southeast 456 525 33,500 -2,647 Descending FlightAware UK
Tue 01:36:06 AM 54.6872 -5.9367 119° Southeast 458 527 33,500 3,750 Level FlightAware UK
Tue 01:36:12 AM 54.6840 -5.9280 119° Southeast 541 623 35,000  Climbing FlightAware ADS-B
Tue 01:36:30 AM 54.6568 -5.8462 119° Southeast 458 527 33,500 -2,500 Descending FlightAware UK
Tue 01:36:48 AM 54.6344 -5.7783 120° Southeast 460 529 33,500 3,333 Level FlightAware UK
Tue 01:36:57 AM 54.6280 -5.7590 120° Southeast 546 628 35,000  Climbing FlightAware ADS-B
Tue 01:37:12 AM 54.6049 -5.6886 120° Southeast 460 529 33,500 -2,727 Descending FlightAware UK
Tue 01:37:30 AM 54.5821 -5.6203 120° Southeast 458 527 33,500 3,600 Level FlightAware UK
Tue 01:37:37 AM 54.5780 -5.6080 120° Southeast 545 627 35,000  Climbing FlightAware ADS-B
Tue 01:37:54 AM 54.5520 -5.5303 120° Southeast 458 527 33,500 -2,571 Descending FlightAware UK
Tue 01:38:12 AM 54.5293 -5.4630 120° Southeast 458 527 33,500 3,214 Level FlightAware UK
Tue 01:38:22 AM 54.5210 -5.4400 120° Southeast 546 628 35,000  Climbing FlightAware ADS-B
Tue 01:38:42 AM 54.4914 -5.3506 120° Southeast 458 527 33,500  Descending FlightAware UK
Tue 01:39:02 AM 54.4710 -5.2900 120° Southeast 545 627 35,000  Climbing FlightAware ADS-B
Tue 01:39:18 AM 54.4459 -5.2159 120° Southeast 456 525 33,500 -2,647 Descending FlightAware UK
Tue 01:39:36 AM 54.4231 -5.1487 120° Southeast 456 525 33,500 3,750 Level FlightAware UK
Tue 01:39:42 AM 54.4210 -5.1430 120° Southeast 544 626 35,000  Climbing FlightAware ADS-B
Tue 01:40:06 AM 54.3850 -5.0373 120° Southeast 456 525 33,500  Descending FlightAware UK
Tue 01:40:22 AM 54.3750 -5.0090 120° Southeast 544 626 35,000  Climbing FlightAware ADS-B
Tue 01:40:42 AM 54.3393 -4.9038 120° Southeast 456 525 33,500 -2,368 Descending FlightAware UK
Tue 01:41:00 AM 54.3164 -4.8373 121° Southeast 456 525 33,500 3,600 Level FlightAware UK
Tue 01:41:07 AM 54.3090 -4.8170 121° Southeast 545 627 35,000  Climbing FlightAware ADS-B
Tue 01:41:24 AM 54.2858 -4.7486 121° Southeast 456 525 33,500 -2,571 Descending FlightAware UK
Tue 01:41:42 AM 54.2629 -4.6819 120° Southeast 456 525 33,500 3,214 Level FlightAware UK
Tue 01:41:52 AM 54.2540 -4.6560 120° Southeast 543 625 35,000  Climbing FlightAware ADS-B
Tue 01:42:07 AM 54.2319 -4.5928 120° Southeast 456 525 33,500 150 Descending FlightAware UK
Tue 01:42:32 AM 54.2030 -4.5090 120° Southeast 546 628 35,100  Climbing FlightAware ADS-B
Tue 01:42:48 AM 54.1857 -4.4321 120° Southeast 456 525 33,500 -2,743 Descending FlightAware UK
Tue 01:43:07 AM 54.1712 -4.3571 108° East 454 522 33,500 3,103 Level FlightAware UK
Tue 01:43:17 AM 54.1640 -4.3220 108° East 552 635 35,000  Climbing FlightAware ADS-B
Tue 01:43:37 AM 54.1474 -4.2335 108° East 454 522 33,500  Descending FlightAware UK
Tue 01:43:57 AM 54.1330 -4.1630 108° East 549 632 35,000  Climbing FlightAware ADS-B
Tue 01:44:13 AM 54.1177 -4.0862 108° East 454 522 33,500 150 Descending FlightAware UK
Tue 01:44:37 AM 54.0980 -3.9930 108° East 549 632 35,100  Climbing FlightAware ADS-B
Tue 01:44:55 AM 54.0814 -3.9160 108° East 454 522 33,500 -133 Descending FlightAware UK
Tue 01:45:22 AM 54.0600 -3.8170 108° East 550 633 35,000  Climbing FlightAware ADS-B
Tue 01:45:37 AM 54.0440 -3.7454 108° East 456 525 33,500 -2,727 Descending FlightAware UK
Tue 01:45:55 AM 54.0283 -3.6732 110° East 456 525 33,500 3,600 Level FlightAware UK
Tue 01:46:02 AM 54.0250 -3.6540 110° East 551 634 35,000  Climbing FlightAware ADS-B
Tue 01:46:25 AM 54.0043 -3.5489 110° East 458 527 33,500 133 Descending FlightAware UK
Tue 01:46:47 AM 53.9870 -3.4640 110° East 552 635 35,100  Climbing FlightAware ADS-B
Tue 01:47:07 AM 53.9699 -3.3768 110° East 460 529 33,500 -150 Descending FlightAware UK
Tue 01:47:27 AM 53.9540 -3.3010 110° East 553 636 35,000  Climbing FlightAware ADS-B
Tue 01:47:43 AM 53.9398 -3.2287 110° East 462 532 33,500 -2,647 Descending FlightAware UK
Tue 01:48:01 AM 53.9247 -3.1552 109° East 462 532 33,500 3,750 Level FlightAware UK
Tue 01:48:07 AM 53.9230 -3.1470 109° East 552 635 35,000  Climbing FlightAware ADS-B
Tue 01:48:25 AM 53.9046 -3.0573 109° East 462 532 33,500 -2,500 Descending FlightAware UK
Tue 01:48:43 AM 53.8893 -2.9840 110° East 462 532 33,500 3,333 Level FlightAware UK
Tue 01:48:52 AM 53.8840 -2.9590 110° East 551 634 35,000  Climbing FlightAware ADS-B
Tue 01:49:07 AM 53.8689 -2.8865 110° East 462 532 33,500  Descending FlightAware UK
Tue 01:49:32 AM 53.8500 -2.7960 110° East 549 632 35,000  Climbing FlightAware ADS-B
Tue 01:49:49 AM 53.8333 -2.7164 110° East 462 532 33,500 -2,571 Descending FlightAware UK
Tue 01:50:07 AM 53.8178 -2.6429 110° East 462 532 33,500 4,174 Level FlightAware UK
Tue 01:50:12 AM 53.8160 -2.6340 110° East 549 632 35,100  Climbing FlightAware ADS-B
Tue 01:50:31 AM 53.7974 -2.5461 110° East 464 534 33,500 -133 Descending FlightAware UK
Tue 01:50:57 AM 53.7780 -2.4560 110° East 548 631 35,000  Climbing FlightAware ADS-B
Tue 01:51:13 AM 53.7612 -2.3764 110° East 462 532 33,500  Descending FlightAware UK
Tue 01:51:31 AM 53.7464 -2.3089 110° East 548 631 35,000 1,875 Climbing FlightAware ADS-B
Tue 01:52:01 AM 53.7204 -2.1879 110° East 547 629 35,000 -1,636 Level FlightAware ADS-B
Tue 01:52:26 AM 53.6989 -2.0874 110° East 462 532 33,500 182 Descending FlightAware UK
Tue 01:52:34 AM 53.6918 -2.0556 110° East 545 627 35,100  Climbing FlightAware ADS-B
Tue 01:52:50 AM 53.6782 -1.9919 110° East 462 532 33,500  Descending FlightAware UK
Tue 01:53:08 AM 53.6624 -1.9205 110° East 544 626 35,100  Climbing FlightAware ADS-B
Tue 01:53:26 AM 53.6471 -1.8492 110° East 460 529 33,500 -171 Descending FlightAware UK
Tue 01:53:43 AM 53.6325 -1.7837 110° East 544 626 35,000  Climbing FlightAware ADS-B
Tue 01:54:02 AM 53.6157 -1.7066 110° East 458 527 33,500  Descending FlightAware UK
Tue 01:54:16 AM 53.6038 -1.6530 110° East 544 626 35,000  Climbing FlightAware ADS-B
Tue 01:54:32 AM 53.5893 -1.5872 110° East 458 527 33,500 -2,647 Descending FlightAware UK
Tue 01:54:50 AM 53.5735 -1.5161 111° Southeast 456 525 33,500 2,368 Level FlightAware UK
Tue 01:55:10 AM 53.5556 -1.4361 111° Southeast 547 629 35,000  Climbing FlightAware ADS-B
Tue 01:55:26 AM 53.5415 -1.3729 111° Southeast 454 522 33,500  Descending FlightAware UK
Tue 01:55:42 AM 53.5272 -1.3099 111° Southeast 548 631 35,000  Climbing FlightAware ADS-B
Tue 01:56:02 AM 53.5092 -1.2301 111° Southeast 454 522 33,500  Descending FlightAware UK
Tue 01:56:13 AM 53.5000 -1.1890 111° Southeast 544 626 35,000  Climbing FlightAware ADS-B
Tue 01:56:44 AM 53.4716 -1.0637 111° Southeast 454 522 33,500 -1,837 Descending FlightAware UK
Tue 01:57:02 AM 53.4556 -0.9932 111° Southeast 454 522 33,500 2,727 Level FlightAware UK
Tue 01:57:17 AM 53.4460 -0.9540 111° Southeast 542 624 35,000  Climbing FlightAware ADS-B
Tue 01:57:32 AM 53.4287 -0.8759 111° Southeast 454 522 33,500 -2,727 Descending FlightAware UK
Tue 01:57:50 AM 53.4126 -0.8055 111° Southeast 454 522 33,500 3,600 Level FlightAware UK
Tue 01:57:57 AM 53.4090 -0.7910 111° Southeast 542 624 35,000 4,737 Climbing FlightAware ADS-B
Tue 01:58:09 AM 53.3960 -0.7340 111° Southeast 543 625 35,000 -2,571 Level FlightAware ADS-B
Tue 01:58:32 AM 53.3745 -0.6416 111° Southeast 456 525 33,500 -1,915 Descending FlightAware UK
Tue 01:58:56 AM 53.3525 -0.5474 111° Southeast 456 525 33,500 2,250 Level FlightAware UK
Tue 01:59:12 AM 53.3390 -0.4888 111° Southeast 543 625 35,000  Climbing FlightAware ADS-B
Tue 01:59:27 AM 53.3251 -0.4298 111° Southeast 458 527 33,500 -2,813 Descending FlightAware UK
Tue 01:59:44 AM 53.3089 -0.3604 111° Southeast 458 527 33,500 3,000 Level FlightAware UK
Tue 01:59:57 AM 53.3000 -0.3240 111° Southeast 540 621 35,000 3,600 Climbing FlightAware ADS-B
Tue 02:00:09 AM 53.2868 -0.2663 111° Southeast 541 623 35,000  Level FlightAware ADS-B
Tue 02:00:42 AM 53.2561 -0.1370 112° Southeast 541 623 35,000 -1,875 Level FlightAware ADS-B
Tue 02:00:57 AM 53.2427 -0.0808 112° Southeast 458 527 33,500  Descending FlightAware UK
Tue 02:01:15 AM 53.2259 -0.0100 112° Southeast 542 624 35,000  Climbing FlightAware ADS-B
Tue 02:01:33 AM 53.2092 0.0591 112° Southeast 458 527 33,500  Descending FlightAware UK
Tue 02:01:47 AM 53.1966 0.1120 112° Southeast 543 625 35,000  Climbing FlightAware ADS-B
Tue 02:02:09 AM 53.1761 0.1977 112° Southeast 460 529 33,500  Descending FlightAware UK
Tue 02:02:18 AM 53.1678 0.2313 112° Southeast 542 624 35,000  Climbing FlightAware ADS-B
Tue 02:02:33 AM 53.1533 0.2920 112° Southeast 460 529 33,500  Descending FlightAware UK
Tue 02:02:50 AM 53.1379 0.3546 112° Southeast 542 624 35,000  Climbing FlightAware ADS-B
Tue 02:03:09 AM 53.1193 0.4308 112° Southeast 460 529 33,500 200 Descending FlightAware UK
Tue 02:03:20 AM 53.1091 0.4728 112° Southeast 542 624 35,100  Climbing FlightAware ADS-B
Tue 02:03:39 AM 53.0909 0.5470 112° Southeast 460 529 33,500  Descending FlightAware UK
Tue 02:04:01 AM 53.0702 0.6315 112° Southeast 542 624 35,100  Climbing FlightAware ADS-B
Tue 02:04:21 AM 53.0511 0.7095 112° Southeast 462 532 33,500 -171 Descending FlightAware UK
Tue 02:04:36 AM 53.0378 0.7629 112° Southeast 543 625 35,000 2,133 Climbing FlightAware ADS-B
Tue 02:05:06 AM 53.0088 0.8797 112° Southeast 542 624 35,100 -2,000 Climbing FlightAware ADS-B
Tue 02:05:21 AM 52.9941 0.9399 112° Southeast 462 532 33,500 -194 Descending FlightAware UK
Tue 02:05:37 AM 52.9827 0.9986 112° Southeast 541 623 35,000  Climbing FlightAware ADS-B
Tue 02:05:58 AM 52.9694 1.0832 112° Southeast 462 532 33,500  Descending FlightAware UK
Tue 02:06:09 AM 52.9643 1.1254 112° Southeast 535 616 35,000 2,195 Climbing FlightAware ADS-B
Tue 02:06:39 AM 52.9503 1.2462 101° East 535 616 35,000 -1,837 Level FlightAware ADS-B
Tue 02:06:58 AM 52.9412 1.3246 101° East 462 532 33,500  Descending FlightAware UK
Tue 02:07:22 AM 52.9299 1.4208 101° East 535 616 35,000  Climbing FlightAware ADS-B
Tue 02:07:40 AM 52.9210 1.4940 101° East 462 532 33,500  Descending FlightAware UK
Tue 02:07:56 AM 52.9137 1.5569 101° East 534 615 35,000 2,087 Climbing FlightAware ADS-B
Tue 02:08:26 AM 52.8993 1.6773 101° East 533 613 35,100 -1,800 Climbing FlightAware ADS-B
Tue 02:08:46 AM 52.8894 1.7579 101° East 464 534 33,500 -2,526 Descending FlightAware UK
Tue 02:09:04 AM 52.8807 1.8307 101° East 464 534 33,500 3,600 Level FlightAware UK
Tue 02:09:11 AM 52.8778 1.8543 101° East 533 613 35,000  Climbing FlightAware ADS-B
Tue 02:09:34 AM 52.8661 1.9500 101° East 464 534 33,500  Descending FlightAware UK
Tue 02:09:52 AM 52.8610 1.9920 101° East 529 609 35,000 2,250 Climbing FlightAware ADS-B
Tue 02:10:14 AM 52.8469 2.1054 102° East 530 610 35,000 -1,875 Level FlightAware ADS-B
Tue 02:10:40 AM 52.8337 2.2110 102° East 460 529 33,500 -2,045 Descending FlightAware UK
Tue 02:10:58 AM 52.8246 2.2827 102° East 460 529 33,500 2,432 Level FlightAware UK
Tue 02:11:17 AM 52.8170 2.3460 102° East 526 605 35,000  Climbing FlightAware ADS-B
Tue 02:11:34 AM 52.8070 2.4241 102° East 460 529 33,500  Descending FlightAware UK
Tue 02:11:57 AM 52.7970 2.5010 102° East 525 604 35,000  Climbing FlightAware ADS-B
Tue 02:12:17 AM 52.7857 2.5890 102° East 460 529 33,500 -2,432 Descending FlightAware UK
Tue 02:12:34 AM 52.7767 2.6584 102° East 460 529 33,500 4,800 Level FlightAware UK
Tue 02:12:37 AM 52.7770 2.6580 102° East 523 602 35,100  Climbing FlightAware ADS-B
Tue 02:12:52 AM 52.7676 2.7283 102° East 460 529 33,500 -2,909 Descending FlightAware UK
Tue 02:13:10 AM 52.7586 2.7982 102° East 458 527 33,500 3,000 Level FlightAware UK
Tue 02:13:22 AM 52.7530 2.8380 102° East 522 601 35,000  Climbing FlightAware ADS-B
Tue 02:13:46 AM 52.7405 2.9380 102° East 458 527 33,500  Descending FlightAware UK
Tue 02:14:02 AM 52.7310 2.9890 102° East 524 603 35,000  Climbing FlightAware ADS-B
Tue 02:14:29 AM 52.7092 3.0981 102° East 458 527 33,500  Descending FlightAware UK
Tue 02:14:47 AM 52.6950 3.1570 102° East 527 606 35,000  Climbing FlightAware ADS-B
Tue 02:15:11 AM 52.6708 3.2540 102° East 458 527 33,500  Descending FlightAware UK
Tue 02:15:27 AM 52.6570 3.3050 102° East 528 608 35,000  Climbing FlightAware ADS-B
Tue 02:15:47 AM 52.6348 3.3858 102° East 458 527 33,500 -2,368 Descending FlightAware UK
Tue 02:16:05 AM 52.6168 3.4516 114° Southeast 458 527 33,500 4,500 Level FlightAware UK
Tue 02:16:07 AM 52.6170 3.4470 114° Southeast 528 608 35,000  Climbing FlightAware ADS-B
Tue 02:16:23 AM 52.5968 3.5166 114° Southeast 458 527 33,500 -2,647 Descending FlightAware UK
Tue 02:16:41 AM 52.5765 3.5808 117° Southeast 458 527 33,500 3,103 Level FlightAware UK
Tue 02:16:52 AM 52.5680 3.6100 117° Southeast 528 608 35,000  Climbing FlightAware ADS-B
Tue 02:17:17 AM 52.5371 3.7093 117° Southeast 458 527 33,500  Descending FlightAware UK
Tue 02:17:32 AM 52.5240 3.7520 117° Southeast 526 605 35,000 1,636 Climbing FlightAware ADS-B
Tue 02:18:12 AM 52.4810 3.8960 116° Southeast 524 603 35,000 71 Level FlightAware ADS-B
Tue 02:18:57 AM 52.4310 4.0590 117° Southeast 522 601 35,100 71 Climbing FlightAware ADS-B
Tue 02:19:37 AM 52.3890 4.2000 116° Southeast 522 601 35,100 -1,412 Level FlightAware ADS-B
Tue 02:20:05 AM 52.3566 4.3048 116° Southeast 458 527 33,500 -133 Descending FlightAware UK
Tue 02:20:22 AM 52.3420 4.3540 116° Southeast 521 600 35,000  Climbing FlightAware ADS-B
Tue 02:20:47 AM 52.3119 4.4525 116° Southeast 462 532 33,500  Descending FlightAware UK
Tue 02:21:02 AM 52.2980 4.4950 116° Southeast 520 598 35,000  Climbing FlightAware ADS-B
Tue 02:21:17 AM 52.2792 4.5571 116° Southeast 460 529 33,500 133 Descending FlightAware UK
Tue 02:21:47 AM 52.2490 4.6550 116° Southeast 518 596 35,100 1,286 Climbing FlightAware ADS-B
Tue 02:22:27 AM 52.2050 4.7950 117° Southeast 517 595 35,000 -1,231 Descending FlightAware ADS-B
Tue 02:23:05 AM 52.1615 4.9320 117° Southeast 460 529 33,500  Descending FlightAware UK
Tue 02:23:07 AM 52.1650 4.9220 117° Southeast 516 594 35,000  Climbing FlightAware ADS-B
Tue 02:23:35 AM 52.1253 5.0325 117° Southeast 458 527 33,500 133 Descending FlightAware UK
Tue 02:23:52 AM 52.1130 5.0860 117° Southeast 514 592 35,100 1,579 Climbing FlightAware ADS-B
Tue 02:24:32 AM 52.0720 5.2150 117° Southeast 513 590 35,000 -1,574 Descending FlightAware ADS-B
Tue 02:24:53 AM 52.0428 5.3011 117° Southeast 462 532 33,500 -2,308 Descending FlightAware UK
Tue 02:25:11 AM 52.0247 5.3635 115° Southeast 462 532 33,500 3,750 Level FlightAware UK
Tue 02:25:17 AM 52.0220 5.3720 115° Southeast 512 589 35,000  Climbing FlightAware ADS-B
Tue 02:25:35 AM 51.9984 5.4451 115° Southeast 460 529 33,500  Descending FlightAware UK
Tue 02:25:57 AM 51.9780 5.5080 115° Southeast 511 588 35,000  Climbing FlightAware ADS-B
Tue 02:26:17 AM 51.9532 5.5879 115° Southeast 458 527 33,500  Descending FlightAware UK
Tue 02:26:37 AM 51.9360 5.6380 115° Southeast 510 587 35,000  Climbing FlightAware ADS-B
Tue 02:26:53 AM 51.9143 5.7107 115° Southeast 456 525 33,500 133 Descending FlightAware UK
Tue 02:27:22 AM 51.8830 5.8000 115° Southeast 509 586 35,100  Climbing FlightAware ADS-B
Tue 02:27:59 AM 51.8415 5.9322 115° Southeast 456 525 33,500 -150 Descending FlightAware UK
Tue 02:28:02 AM 51.8390 5.9340 115° Southeast 508 585 35,000  Climbing FlightAware ADS-B
Tue 02:28:17 AM 51.8227 5.9930 115° Southeast 456 525 33,500 150 Descending FlightAware UK
Tue 02:28:42 AM 51.7960 6.0670 115° Southeast 506 582 35,100 1,385 Climbing FlightAware ADS-B
Tue 02:29:22 AM 51.7540 6.1940 118° Southeast 506 582 35,000  Descending FlightAware ADS-B
Tue 02:30:12 AM 51.6900 6.3530 123° Southeast 513 590 35,100  Climbing FlightAware ADS-B
Tue 02:30:52 AM 51.6270 6.4690 131° Southeast 512 589 35,000 -75 Descending FlightAware ADS-B
Tue 02:31:32 AM 51.5710 6.5760 130° Southeast 512 589 35,000 71 Level FlightAware ADS-B
Tue 02:32:17 AM 51.4990 6.7190 129° Southeast 510 587 35,100  Climbing FlightAware ADS-B
Tue 02:32:57 AM 51.4420 6.8330 129° Southeast 510 587 35,000 -75 Descending FlightAware ADS-B
Tue 02:33:37 AM 51.3790 6.9510 131° Southeast 510 587 35,000 71 Level FlightAware ADS-B
Tue 02:34:22 AM 51.3070 7.0830 131° Southeast 508 585 35,100  Climbing FlightAware ADS-B
Tue 02:35:02 AM 51.2480 7.1920 131° Southeast 508 585 35,000 -71 Descending FlightAware ADS-B
Tue 02:35:47 AM 51.1820 7.3130 131° Southeast 507 583 35,000 71 Level FlightAware ADS-B
Tue 02:36:27 AM 51.1190 7.4260 132° Southeast 506 582 35,100 71 Climbing FlightAware ADS-B
Tue 02:37:12 AM 51.0470 7.5560 131° Southeast 506 582 35,100 -71 Level FlightAware ADS-B
Tue 02:37:52 AM 50.9890 7.6620 131° Southeast 505 581 35,000 -80 Descending FlightAware ADS-B
Tue 02:38:27 AM 50.9340 7.7550 133° Southeast 506 582 35,000 -204 Level FlightAware ADS-B
Tue 02:41:00 AM 50.6943 8.1580 133° Southeast  Level Estimated
Tue 02:42:00 AM 50.5999 8.3149 133° Southeast  Level Estimated
Tue 02:43:00 AM 50.5053 8.4711 134° Southeast  Level Estimated
Tue 02:44:00 AM 50.4105 8.6268 134° Southeast  Level Estimated
Tue 02:45:00 AM 50.3155 8.7818 134° Southeast  Level Estimated
Tue 02:46:00 AM 50.2203 8.9362 134° Southeast  Level Estimated
Tue 02:47:00 AM 50.1249 9.0900 134° Southeast  Level Estimated
Tue 02:47:12 AM 49.9780 8.9760 134° Southeast 506 582 33,100  Level FlightAware ADS-B
Tue 02:47:52 AM 49.9060 9.0650 141° Southeast 506 582 33,000 -71 Descending FlightAware ADS-B
Tue 02:48:37 AM 49.8240 9.1650 142° Southeast 494 568 33,000  Level FlightAware ADS-B
Tue 02:49:17 AM 49.7540 9.2500 142° Southeast 484 557 33,000 75 Level FlightAware ADS-B
Tue 02:49:57 AM 49.6860 9.3340 141° Southeast 481 554 33,100 -212 Climbing FlightAware ADS-B
Tue 02:50:42 AM 49.6070 9.4370 140° Southeast 475 547 32,700 -706 Descending FlightAware ADS-B
Tue 02:51:22 AM 49.5740 9.4930 132° Southeast 470 541 32,100 -1,553 Descending FlightAware ADS-B
Tue 02:52:07 AM 49.5110 9.6020 132° Southeast 463 533 30,500 -2,100 Descending FlightAware ADS-B
Tue 02:52:42 AM 49.4580 9.6960 131° Southeast 452 520 29,300 -2,250 Descending FlightAware ADS-B
Tue 02:53:27 AM 49.3810 9.8300 131° Southeast 433 498 27,500 -1,906 Descending FlightAware ADS-B
Tue 02:54:07 AM 49.3400 9.9010 132° Southeast 425 489 26,600 -1,271 Descending FlightAware ADS-B
Tue 02:54:52 AM 49.2860 9.9940 132° Southeast 418 481 25,700 -960 Descending FlightAware ADS-B
Tue 02:55:47 AM 49.2020 10.1380 132° Southeast 406 467 25,000 -467 Descending FlightAware ADS-B
Tue 02:56:22 AM 49.1640 10.2040 131° Southeast 406 467 25,000  Level FlightAware ADS-B
Tue 02:57:12 AM 49.0980 10.3150 132° Southeast 410 472 25,000  Level FlightAware ADS-B
Tue 02:58:07 AM 49.0290 10.4210 135° Southeast 406 467 25,000 -540 Level FlightAware ADS-B
Tue 02:58:52 AM 48.9720 10.5120 134° Southeast 399 459 24,100 -1,500 Descending FlightAware ADS-B
Tue 02:59:27 AM 48.9290 10.5810 133° Southeast 396 456 23,000 -1,200 Descending FlightAware ADS-B
Tue 03:00:07 AM 48.8810 10.6580 133° Southeast 396 456 22,600 -267 Descending FlightAware ADS-B
Tue 03:00:57 AM 48.8280 10.7450 133° Southeast 396 456 22,600 -2,329 Level FlightAware ADS-B
Tue 03:01:32 AM 48.7740 10.8260 135° Southeast 362 417 19,300 -3,318 Descending FlightAware ADS-B
Tue 03:02:22 AM 48.7200 10.9100 134° Southeast 355 409 17,900 -1,800 Descending FlightAware ADS-B
Tue 03:03:02 AM 48.6710 10.9830 135° Southeast 349 402 16,600 -1,800 Descending FlightAware ADS-B
Tue 03:03:42 AM 48.6250 11.0450 138° Southeast 341 392 15,500 -1,440 Descending FlightAware ADS-B
Tue 03:04:17 AM 48.5860 11.0990 138° Southeast 329 379 14,800 -1,725 Descending FlightAware ADS-B
Tue 03:05:02 AM 48.5310 11.1730 138° Southeast 329 379 13,200 -1,867 Descending FlightAware ADS-B
Tue 03:05:47 AM 48.4820 11.2390 138° Southeast 325 374 12,000 -1,467 Descending FlightAware ADS-B
Tue 03:06:32 AM 48.4350 11.3020 138° Southeast 318 366 11,000 -857 Descending FlightAware ADS-B
Tue 03:06:57 AM 48.4180 11.3530 117° Southeast 318 366 11,000  Level FlightAware ADS-B
Tue 03:07:42 AM 48.4230 11.4550 86° East 315 362 11,000  Level FlightAware ADS-B
Tue 03:08:22 AM 48.4300 11.5380 83° East 314 361 11,000 -180 Level FlightAware ADS-B
Tue 03:09:22 AM 48.4400 11.6670 83° East 311 358 10,700 -660 Descending FlightAware ADS-B
Tue 03:10:02 AM 48.4470 11.7470 82° East 296 341 9,900 -1,385 Descending FlightAware ADS-B
Tue 03:10:27 AM 48.4510 11.8010 84° East 286 329 9,200 -1,800 Descending FlightAware ADS-B
Tue 03:10:42 AM 48.4530 11.8330 85° East 279 321 8,700 -2,267 Descending FlightAware ADS-B
Tue 03:11:12 AM 48.4570 11.8910 84° East 278 320 7,500 -2,291 Descending FlightAware ADS-B
Tue 03:11:37 AM 48.4610 11.9400 83° East 279 321 6,600 -2,057 Descending FlightAware ADS-B
Tue 03:11:47 AM 48.4620 11.9530 83° East 278 320 6,300 -1,600 Descending FlightAware ADS-B
Tue 03:12:22 AM 48.4660 12.0090 84° East 274 315 5,400 -2,031 Descending FlightAware ADS-B
Tue 03:12:52 AM 48.4660 12.0910 90° East 263 303 4,100 -2,250 Descending FlightAware ADS-B
Tue 03:13:02 AM 48.4600 12.1050 123° Southeast 260 299 3,900 -720 Descending FlightAware ADS-B
Tue 03:13:17 AM 48.4440 12.1180 152° Southeast 239 275 3,800 -133 Descending FlightAware ADS-B
Tue 03:13:47 AM 48.4130 12.1100 190° South 220 253 3,800  Level FlightAware ADS-B
Tue 03:14:02 AM 48.4010 12.1000 209° Southwest 223 257 3,800  Level FlightAware ADS-B
Tue 03:14:12 AM 48.3930 12.0860 229° Southwest 220 253 3,800  Level FlightAware ADS-B
Tue 03:14:42 AM 48.3820 12.0450 248° West 208 239 3,800 -100 Level FlightAware ADS-B
Tue 03:15:12 AM 48.3810 12.0050 268° West 182 209 3,700 -545 Descending FlightAware ADS-B
Tue 03:15:37 AM 48.3780 11.9740 262° West 181 208 3,300 -1,050 Descending FlightAware ADS-B
Tue 03:15:52 AM 48.3770 11.9560 265° West 180 207 3,000 -933 Descending FlightAware ADS-B
Tue 03:16:22 AM 48.3740 11.9180 263° West 172 198 2,600 -873 Descending FlightAware ADS-B
Tue 03:16:47 AM 48.3720 11.8910 264° West 145 167 2,200 -900 Descending FlightAware ADS-B
Tue 03:17:02 AM 48.3710 11.8780 263° West 136 157 2,000 -800 Descending FlightAware ADS-B
Tue 03:17:32 AM 48.3690 11.8500 264° West 135 155 1,600 -750 Descending FlightAware ADS-B
Tue 03:17:42 AM 48.3680 11.8400 261° West 135 155 1,500 -600 Descending FlightAware ADS-B
Tue 03:18:12 AM 48.3660 11.8140 263° West 135 155 1,200 -600 Descending FlightAware ADS-B

Login

Don't have an account? Register now (free) for customized features, flight alerts, and more!